Stations météo

réclame
Mon MeteoGroup
Zeebrugge, Belgique (6418): Température de l'air & dewpoint: 13.06.2019 11:00:00 - 19.06.2019 11:00:00 (CEST)Zeebrugge, Belgique (6418): Vitesse du vent & gusts: 13.06.2019 11:00:00 - 19.06.2019 11:00:00 (CEST)Zeebrugge, Belgique (6418): Direction du vent: 13.06.2019 11:00:00 - 19.06.2019 11:00:00 (CEST)Zeebrugge, Belgique (6418): reduced air pressure: 13.06.2019 11:00:00 - 19.06.2019 11:00:00 (CEST)Zeebrugge, Belgique (6418): Ensoleillement: 13.06.2019 11:00:00 - 19.06.2019 11:00:00 (CEST)Zeebrugge, Belgique (6418): Quantités de précipitations: 13.06.2019 11:00:00 - 19.06.2019 11:00:00 (CEST)
Date & Time tt [°C] td [°C] ff [km/h] ff [knt] fx [km/h] fx [knt] dd ppp [hPa] sd [min] rr [mm]
19.06.2019 11:00:00 - - - - - - - - - -
19.06.2019 10:00:00 - - - - - - - - - -
19.06.2019 09:00:00 - - - - - - - - - -
19.06.2019 08:00:00 - - - - - - - - - -
19.06.2019 07:00:00 - - - - - - - - - -
19.06.2019 06:00:00 - - - - - - - - - -
19.06.2019 05:00:00 - - - - - - - - - -
19.06.2019 04:00:00 - - - - - - - - - -
19.06.2019 03:00:00 - - - - - - - - - -
19.06.2019 02:00:00 - - - - - - - - - -
19.06.2019 01:00:00 - - - - - - - - - -
19.06.2019 00:00:00 - - - - - - - - - -
18.06.2019 23:00:00 - - - - - - - - - -
18.06.2019 22:00:00 - - - - - - - - - -
18.06.2019 21:00:00 - - - - - - - - - -
18.06.2019 20:00:00 - - - - - - - - - -
18.06.2019 19:00:00 - - - - - - - - - -
18.06.2019 18:00:00 - - - - - - - - - -
18.06.2019 17:00:00 - - - - - - - - 38 -
18.06.2019 16:00:00 18,6 14,1 20 11 23 12 N 1013,9 60 0,0
18.06.2019 15:00:00 19,1 13,9 17 9 19 10 NNE 1014,4 60 0,0
18.06.2019 14:00:00 18,9 14,0 14 8 17 9 NNE 1014,7 60 0,0
18.06.2019 13:00:00 18,5 13,6 14 7 16 9 NNE 1015,3 60 0,0
18.06.2019 12:00:00 18,5 13,9 12 7 14 8 N 1015,5 60 0,0
18.06.2019 11:00:00 18,1 13,1 8 4 9 5 N 1015,7 37 0,0
18.06.2019 10:00:00 18,2 13,2 7 4 9 5 NNE 1015,8 60 0,0
18.06.2019 09:00:00 17,1 12,6 7 4 9 5 N 1016,4 45 0,0
18.06.2019 08:00:00 17,2 12,9 7 4 14 8 NNW 1016,2 60 0,0
18.06.2019 07:00:00 16,3 12,8 9 5 10 6 NW 1016,4 35 0,0
18.06.2019 06:00:00 15,7 12,1 5 3 8 5 WNW 1016,2 0 0,0
18.06.2019 05:00:00 16,0 12,1 6 4 13 7 W 1016,5 0 0,0
18.06.2019 04:00:00 16,0 11,7 9 5 14 8 W 1016,8 0 0,0
18.06.2019 03:00:00 16,4 11,2 5 3 10 5 SW 1017,1 0 0,0
18.06.2019 02:00:00 16,5 11,8 7 4 12 6 W 1017,6 0 0,0
18.06.2019 01:00:00 16,9 12,6 4 2 6 3 N 1017,7 0 0,0
18.06.2019 00:00:00 17,0 12,6 5 3 10 6 N 1017,6 0 0,0
17.06.2019 23:00:00 16,8 11,9 9 5 13 7 NW 1017,7 0 0,0
17.06.2019 22:00:00 17,2 12,2 10 5 13 7 NNW 1017,7 0 0,0
17.06.2019 21:00:00 17,7 12,5 9 5 13 7 NNW 1017,6 41 0,0
17.06.2019 20:00:00 18,3 12,7 11 6 15 8 NNW 1017,7 60 0,0
17.06.2019 19:00:00 18,6 13,2 12 7 16 9 NW 1018,3 60 0,0
17.06.2019 18:00:00 18,9 13,7 15 8 18 10 NNW 1018,6 60 0,0
17.06.2019 17:00:00 19,2 14,1 14 8 19 10 NNW 1018,8 60 0,0
17.06.2019 16:00:00 19,1 14,0 15 8 20 11 NNW 1019,1 59 0,0
17.06.2019 15:00:00 19,3 13,9 16 9 22 12 NNW 1019,4 33 0,0
17.06.2019 14:00:00 20,9 13,4 14 8 25 13 NNW 1019,2 28 0,0
17.06.2019 13:00:00 21,1 11,9 13 7 27 15 SSW 1019,4 42 0,0
17.06.2019 12:00:00 20,6 11,8 19 10 29 16 S 1019,7 57 0,0
17.06.2019 11:00:00 19,9 12,8 20 11 27 15 S 1019,9 60 0,0
17.06.2019 10:00:00 19,3 14,4 16 9 23 13 S 1020,2 60 0,0
17.06.2019 09:00:00 17,5 15,2 10 6 20 11 S 1020,4 60 0,0
17.06.2019 08:00:00 16,0 14,2 14 8 19 10 SSE 1020,2 60 0,0
17.06.2019 07:00:00 14,5 13,0 11 6 16 8 SSE 1020,3 54 0,0
17.06.2019 06:00:00 14,6 12,9 13 7 17 9 SE 1020,0 0 0,0
17.06.2019 05:00:00 14,6 12,7 13 7 16 8 SE 1020,1 0 0,0
17.06.2019 04:00:00 15,0 12,7 8 5 10 6 SE 1020,5 0 0,0
17.06.2019 03:00:00 15,5 12,9 9 5 12 7 SSE 1020,8 0 0,0
17.06.2019 02:00:00 15,5 12,4 7 4 11 6 SSE 1021,0 0 0,0
17.06.2019 01:00:00 16,4 12,6 7 4 11 6 S 1021,0 0 0,0
17.06.2019 00:00:00 16,7 12,3 7 4 16 9 SSW 1021,2 0 0,0
16.06.2019 23:00:00 17,1 12,4 9 5 20 11 SW 1021,1 0 0,0
16.06.2019 22:00:00 17,5 12,4 10 6 26 14 WSW 1020,9 49 0,0
16.06.2019 21:00:00 17,8 12,3 17 9 28 15 WSW 1020,6 60 0,0
16.06.2019 20:00:00 18,3 12,5 22 12 34 19 W 1020,6 60 0,0
16.06.2019 19:00:00 18,7 12,7 23 12 37 20 W 1020,4 60 0,0
16.06.2019 18:00:00 18,8 12,9 26 14 37 20 W 1020,4 60 0,0
16.06.2019 17:00:00 - - - - - - - - - -
16.06.2019 16:00:00 - - - - - - - - - -
16.06.2019 15:00:00 - - - - - - - - - -
16.06.2019 14:00:00 - - - - - - - - 22 -
16.06.2019 13:00:00 - - - - - - - - 15 -
16.06.2019 12:00:00 17,2 10,7 26 14 40 21 SSW 1019,7 47 0,0
16.06.2019 11:00:00 16,8 11,4 26 14 41 22 SSW 1019,4 51 0,0
16.06.2019 10:00:00 16,4 12,9 21 12 33 18 SW 1019,1 26 0,0
16.06.2019 09:00:00 15,2 12,8 22 12 33 18 SW 1019,0 25 0,0
16.06.2019 08:00:00 14,8 12,0 22 12 32 17 S 1018,2 1 0,0
16.06.2019 07:00:00 14,8 11,9 17 9 25 13 S 1017,9 0 0,0
16.06.2019 06:00:00 14,8 11,8 19 10 26 14 SSW 1017,7 0 0,0
16.06.2019 05:00:00 14,4 11,3 16 9 22 12 SSW 1017,3 0 0,0
16.06.2019 04:00:00 14,8 11,2 16 9 22 12 SSW 1017,2 0 0,0
16.06.2019 03:00:00 15,4 10,9 13 7 26 14 SSW 1017,0 0 0,0
16.06.2019 02:00:00 16,3 11,5 18 10 27 15 SSW 1017,0 0 0,0
16.06.2019 01:00:00 16,3 11,2 13 7 16 9 SE 1016,5 0 0,0
16.06.2019 00:00:00 16,2 11,0 13 7 15 8 SE 1016,6 0 0,0
15.06.2019 23:00:00 16,4 11,0 8 5 11 6 SSE 1016,6 0 0,0
15.06.2019 22:00:00 - - - - - - - - - -
15.06.2019 21:00:00 - - - - - - - - - -
15.06.2019 20:00:00 17,6 10,8 11 6 20 11 N 1015,9 50 0,0
15.06.2019 19:00:00 17,9 10,9 11 6 16 9 NNW 1015,8 60 0,0
15.06.2019 18:00:00 17,9 10,9 10 5 14 7 N 1015,9 60 0,0
15.06.2019 17:00:00 17,7 11,4 8 4 16 8 NNE 1015,8 57 0,0
15.06.2019 16:00:00 18,1 12,3 13 7 18 10 NW 1015,8 21 0,0
15.06.2019 15:00:00 17,2 11,6 10 6 14 8 NNW 1015,7 60 0,0
15.06.2019 14:00:00 17,0 11,4 11 6 15 8 N 1015,6 60 0,0
15.06.2019 13:00:00 17,6 12,7 10 5 16 9 NNW 1015,0 54 0,0
15.06.2019 12:00:00 - - - - - - - - - -
15.06.2019 11:00:00 - - - - - - - - 0 -
15.06.2019 10:00:00 15,5 13,3 9 5 15 8 W 1013,7 0 0,0
15.06.2019 09:00:00 15,2 13,2 11 6 15 8 NW 1013,2 0 0,0
15.06.2019 08:00:00 14,7 12,8 4 2 23 12 NNW 1012,5 0 0,3
15.06.2019 07:00:00 14,3 12,2 16 9 24 13 NE 1011,9 0 0,1
15.06.2019 06:00:00 13,9 11,4 16 9 28 15 NE 1012,5 0 0,3
15.06.2019 05:00:00 14,1 10,7 20 11 27 15 ENE 1012,6 0 2,1
15.06.2019 04:00:00 15,4 10,6 14 7 20 11 E 1012,3 0 0,1
15.06.2019 03:00:00 16,4 11,5 14 8 20 11 NE 1012,4 0 0,0
15.06.2019 02:00:00 16,3 11,3 14 8 22 12 NNE 1012,5 0 0,0
15.06.2019 01:00:00 16,1 11,0 14 8 21 11 NE 1013,1 0 0,0
15.06.2019 00:00:00 16,2 10,9 14 8 19 10 NE 1013,6 0 0,0
14.06.2019 23:00:00 16,1 10,6 14 7 16 9 NNE 1013,9 0 0,0
14.06.2019 22:00:00 16,2 10,6 11 6 15 8 NE 1014,1 5 0,0
14.06.2019 21:00:00 16,3 10,6 11 6 18 10 NNE 1013,8 54 0,0
14.06.2019 20:00:00 16,6 11,0 14 8 17 9 N 1013,4 48 0,0
14.06.2019 19:00:00 - - - - - - - - - -
14.06.2019 18:00:00 17,6 11,5 16 9 27 15 NNW 1013,3 60 0,0
14.06.2019 17:00:00 18,6 11,2 18 10 29 16 NW 1013,5 60 0,0
14.06.2019 16:00:00 17,9 11,8 16 9 32 17 WNW 1014,2 56 0,0
14.06.2019 15:00:00 19,0 11,2 21 12 35 19 WNW 1014,0 53 0,0
14.06.2019 14:00:00 19,2 9,2 25 13 - - SSW 1013,8 27 -
14.06.2019 13:00:00 18,5 11,4 21 12 37 20 SSW 1013,5 57 0,0
14.06.2019 12:00:00 - - - - - - - - 20 -
14.06.2019 11:00:00 16,3 13,4 16 8 23 12 S 1013,0 60 0,0
14.06.2019 10:00:00 14,2 11,8 16 8 32 17 S 1013,2 6 0,0
14.06.2019 09:00:00 13,9 11,4 13 7 16 9 SSE 1012,9 0 0,0
14.06.2019 08:00:00 13,3 11,0 14 8 18 10 S 1012,8 0 0,0
14.06.2019 07:00:00 13,0 10,8 16 8 18 10 SSE 1012,4 0 0,0
14.06.2019 06:00:00 12,8 10,5 15 8 23 12 SSE 1012,4 0 0,0
14.06.2019 05:00:00 12,7 10,3 16 9 19 11 SSE 1011,9 0 0,0
14.06.2019 04:00:00 12,9 10,4 14 8 18 10 SSE 1011,9 0 0,0
14.06.2019 03:00:00 13,1 10,6 14 8 25 13 SSE 1012,0 0 0,0
14.06.2019 02:00:00 13,9 11,2 18 10 25 13 S 1012,0 0 0,0
14.06.2019 01:00:00 14,0 11,4 19 11 28 15 S 1012,0 0 0,0
14.06.2019 00:00:00 14,0 11,2 22 12 29 15 S 1011,9 0 0,0
13.06.2019 23:00:00 14,3 11,1 18 10 31 17 S 1011,6 0 0,0
13.06.2019 22:00:00 14,4 11,1 26 14 34 18 SSW 1010,7 0 0,0
13.06.2019 21:00:00 14,8 11,0 23 12 40 21 S 1010,2 7 0,0
13.06.2019 20:00:00 15,2 10,4 25 14 40 22 S 1009,9 4 0,0
13.06.2019 19:00:00 15,2 10,7 29 15 46 25 SSW 1009,5 18 0,0
13.06.2019 18:00:00 13,7 10,3 23 12 50 27 SSW 1009,6 2 1,7
13.06.2019 17:00:00 16,8 10,4 36 19 49 27 S 1009,5 20 0,0
13.06.2019 16:00:00 16,1 10,9 36 20 57 31 S 1009,1 18 0,0
13.06.2019 15:00:00 - - - - - - - - - -
13.06.2019 14:00:00 - - - - - - - - 0 -
13.06.2019 13:00:00 15,4 10,5 35 19 50 27 S 1009,6 17 0,0
13.06.2019 12:00:00 14,7 11,0 36 19 55 30 S 1009,6 12 0,0
13.06.2019 11:00:00 14,0 11,5 36 20 49 27 S 1009,2 21 0,0

tt = Température de l'air
td = dewpoint
ff = Vitesse du vent
fx = gusts
dd = Direction du vent
ppp = reduced air pressure
sd = Ensoleillement
rr = Quantités de précipitations

stations d'obs. à proximité